Pagina principale
METAR-TAF:

METAR-TAF

Aeroporti :

Lamezia Terme, Italia

Aeroporto di Lamezia Terme

latitudine: 38-54N, longitudine: 016-15E, altezza: 15 m

Osservazione

Il bollettino è stato emesso 1 ora e 20 minuti fa, alle 06:50 UTC
Vento 6 kt da sud-ovest, variando fra sud/sud-ovest e ovest
Temperature 20°C
Umidità 73%
Pressione 1017 hPa
Visibilità 10 km o più
Poco nuvoloso ad un'altezza di 2500 ft

METAR: LICA 270650Z 23006KT 200V280 9999 FEW025 20/15 Q1017

Ora: 10:10 (08:10 UTC)

Previsione

Il bollettino è stato emesso 3 ore e 10 minuti fa, alle 05:00 UTC
Previsione valida dal 27 alle 06 UTC al 28 alle 06 UTC
Vento 5 kt da direzioni variabili
Visibilità 10 km o più
Nubi sparse ad un'altezza di 2000 ft
Evoluzione graduale
dal 27 alle 09 UTC al 27 alle 11 UTC
Vento 12 kt da ovest
Evoluzione graduale
dal 27 alle 18 UTC al 27 alle 20 UTC
Vento 5 kt da direzioni variabili

TAF: LICA 270500Z 2706/2806 VRB05KT 9999 SCT020 BECMG 2709/2711 27012KT BECMG 2718/2720 VRB05KT

Osservazioni e previsioni meteorologiche di più di 4000 aeroporti (messaggi METAR e TAF).

Le stazioni disponibili sono rappresentate dai dischi gialli e rossi sulla carta.

Puntare il mouse per vedere il nome della stazione.

Clicca sopra per visualizzare le osservazioni e previsioni meteorologiche.

Per cambiare la mappa : fare clic sui pulsanti verdi con una croce nera per ingrandire, il pulsante verde con un trattino per diminuire, o sulla freccia verde per le mappe adiacenti.


METAR-TAF: